createdAt,value
2022-08-01T00:03:31.293Z,100438
2022-08-01T00:09:27.416Z,100432
2022-08-01T00:15:18.790Z,100426
2022-08-01T00:21:11.686Z,100415
2022-08-01T00:27:01.771Z,100419
2022-08-01T00:32:52.849Z,100424
2022-08-01T00:38:45.169Z,100424
2022-08-01T00:44:35.808Z,100423
2022-08-01T00:50:28.264Z,100428
2022-08-01T00:56:19.510Z,100425
2022-08-01T01:02:18.289Z,100422
2022-08-01T01:08:08.862Z,100424
2022-08-01T01:13:58.240Z,100430
2022-08-01T01:19:47.843Z,100430
2022-08-01T01:25:36.807Z,100424
2022-08-01T01:31:27.961Z,100426
2022-08-01T01:37:19.771Z,100426
2022-08-01T01:43:12.480Z,100431
2022-08-01T01:49:05.113Z,100433
2022-08-01T01:54:56.214Z,100435
2022-08-01T02:00:48.534Z,100432
2022-08-01T02:06:40.420Z,100425
2022-08-01T02:12:32.625Z,100430
2022-08-01T02:18:27.620Z,100422
2022-08-01T02:24:17.164Z,100426
2022-08-01T02:30:14.589Z,100426
2022-08-01T02:36:35.426Z,100430
2022-08-01T02:42:24.147Z,100431
2022-08-01T02:48:14.898Z,100432
2022-08-01T02:54:05.747Z,100429
2022-08-01T02:59:58.983Z,100431
2022-08-01T03:05:49.981Z,100438
2022-08-01T03:11:40.764Z,100428
2022-08-01T03:17:31.957Z,100429
2022-08-01T03:23:39.272Z,100427
2022-08-01T03:29:28.728Z,100440
2022-08-01T03:36:29.998Z,100429
2022-08-01T03:42:20.801Z,100443
2022-08-01T03:48:11.730Z,100433
2022-08-01T03:54:03.778Z,100440
2022-08-01T03:59:55.120Z,100441
2022-08-01T04:05:46.177Z,100437
2022-08-01T04:11:38.693Z,100442
2022-08-01T04:17:30.005Z,100437
2022-08-01T04:23:21.091Z,100442
2022-08-01T04:29:11.169Z,100455
2022-08-01T04:35:02.574Z,100446
2022-08-01T04:41:52.772Z,100448
2022-08-01T04:47:43.456Z,100450
2022-08-01T04:53:34.577Z,100467
2022-08-01T04:59:26.737Z,100465
2022-08-01T05:05:17.803Z,100468
2022-08-01T05:11:08.759Z,100465
2022-08-01T05:16:59.597Z,100470
2022-08-01T05:22:50.957Z,100484
2022-08-01T05:28:43.925Z,100470
2022-08-01T05:34:35.113Z,100476
2022-08-01T05:40:26.530Z,100478
2022-08-01T05:46:18.249Z,100492
2022-08-01T05:52:14.679Z,100488
2022-08-01T05:58:05.536Z,100490
2022-08-01T06:04:00.748Z,100487
2022-08-01T06:09:53.470Z,100488
2022-08-01T06:15:43.715Z,100491
2022-08-01T06:21:37.287Z,100496
2022-08-01T06:27:28.861Z,100506
2022-08-01T06:33:21.777Z,100503
2022-08-01T06:39:12.949Z,100495
2022-08-01T06:45:05.652Z,100491
2022-08-01T06:50:56.495Z,100500
2022-08-01T06:56:47.744Z,100506
2022-08-01T07:02:39.450Z,100495
2022-08-01T07:08:31.768Z,100502
2022-08-01T07:14:22.988Z,100496
2022-08-01T07:20:18.110Z,100512
2022-08-01T07:26:12.587Z,100520
2022-08-01T07:32:03.275Z,100520
2022-08-01T07:37:57.417Z,100514
2022-08-01T07:44:04.911Z,100524
2022-08-01T07:49:54.514Z,100519
2022-08-01T07:55:49.059Z,100519
2022-08-01T08:01:41.879Z,100528
2022-08-01T08:07:35.793Z,100524
2022-08-01T08:13:26.968Z,100530
2022-08-01T08:19:18.934Z,100525
2022-08-01T08:25:30.261Z,100531
2022-08-01T08:31:54.808Z,100528
2022-08-01T08:37:58.177Z,100537
2022-08-01T08:43:48.188Z,100542
2022-08-01T08:49:46.113Z,100534
2022-08-01T08:55:59.106Z,100545
2022-08-01T09:01:49.087Z,100556
2022-08-01T09:07:39.813Z,100556
2022-08-01T09:13:32.623Z,100559
2022-08-01T09:19:43.933Z,100558
2022-08-01T09:25:51.592Z,100559
2022-08-01T09:31:51.483Z,100563
2022-08-01T09:37:50.805Z,100571
2022-08-01T09:43:42.240Z,100560
2022-08-01T09:49:55.293Z,100565
2022-08-01T09:55:47.478Z,100558
2022-08-01T10:01:44.891Z,100552
2022-08-01T10:07:46.972Z,100553
2022-08-01T10:13:40.518Z,100560
2022-08-01T10:19:34.325Z,100554
2022-08-01T10:25:48.737Z,100541
2022-08-01T10:31:51.935Z,100534
2022-08-01T10:37:56.033Z,100523
2022-08-01T10:43:51.301Z,100527
2022-08-01T10:49:43.656Z,100524
2022-08-01T10:55:40.235Z,100519
2022-08-01T11:01:31.593Z,100524
2022-08-01T11:07:38.166Z,100518
2022-08-01T11:13:36.010Z,100519
2022-08-01T11:19:29.822Z,100528
2022-08-01T11:26:12.207Z,100534
2022-08-01T11:32:02.846Z,100531
2022-08-01T11:37:58.082Z,100534
2022-08-01T11:43:55.831Z,100526
2022-08-01T11:49:52.612Z,100522
2022-08-01T11:55:51.352Z,100511
2022-08-01T12:01:49.955Z,100512
2022-08-01T12:07:45.333Z,100512
2022-08-01T12:13:36.726Z,100519
2022-08-01T12:19:28.590Z,100530
2022-08-01T12:25:20.660Z,100531
2022-08-01T12:31:16.152Z,100521
2022-08-01T12:37:08.275Z,100519
2022-08-01T12:43:00.093Z,100543
2022-08-01T12:48:52.169Z,100534
2022-08-01T12:54:44.063Z,100547
2022-08-01T13:00:36.199Z,100540
2022-08-01T13:06:27.926Z,100536
2022-08-01T13:12:18.016Z,100533
2022-08-01T13:18:09.747Z,100530
2022-08-01T13:24:07.251Z,100529
2022-08-01T13:29:58.475Z,100526
2022-08-01T13:35:50.039Z,100524
2022-08-01T13:41:43.370Z,100525
2022-08-01T13:47:36.132Z,100519
2022-08-01T13:53:50.718Z,100518
2022-08-01T13:59:42.529Z,100514
2022-08-01T14:05:33.419Z,100514
2022-08-01T14:11:24.742Z,100514
2022-08-01T14:17:23.496Z,100517
2022-08-01T14:23:16.740Z,100518
2022-08-01T14:29:07.343Z,100510
2022-08-01T14:34:58.675Z,100516
2022-08-01T14:40:51.635Z,100511
2022-08-01T14:47:00.360Z,100510
2022-08-01T14:53:08.397Z,100513
2022-08-01T14:59:00.830Z,100513
2022-08-01T15:05:08.208Z,100510
2022-08-01T15:10:59.898Z,100514
2022-08-01T15:16:51.217Z,100509
2022-08-01T15:22:59.297Z,100511
2022-08-01T15:29:04.695Z,100520
2022-08-01T15:35:19.161Z,100510
2022-08-01T15:41:33.539Z,100516
2022-08-01T15:47:39.099Z,100520
2022-08-01T15:53:36.410Z,100515
2022-08-01T15:59:28.251Z,100516
2022-08-01T16:05:23.666Z,100514
2022-08-01T16:11:14.838Z,100513
2022-08-01T16:17:07.511Z,100516
2022-08-01T16:23:00.164Z,100510
2022-08-01T16:28:51.679Z,100516
2022-08-01T16:34:49.998Z,100511
2022-08-01T16:40:51.133Z,100509
2022-08-01T16:46:43.283Z,100499
2022-08-01T16:52:45.305Z,100500
2022-08-01T16:58:35.763Z,100498
2022-08-01T17:04:28.058Z,100499
2022-08-01T17:10:19.613Z,100496
2022-08-01T17:16:10.581Z,100498
2022-08-01T17:22:00.527Z,100499
2022-08-01T17:27:51.747Z,100504
2022-08-01T17:33:55.083Z,100513
2022-08-01T17:39:44.714Z,100516
2022-08-01T17:45:52.927Z,100517
2022-08-01T17:51:45.962Z,100531
2022-08-01T17:57:36.622Z,100529
2022-08-01T18:03:42.600Z,100528
2022-08-01T18:09:45.636Z,100527
2022-08-01T18:15:38.876Z,100537
2022-08-01T18:21:29.708Z,100539
2022-08-01T18:27:21.674Z,100557
2022-08-01T18:34:04.099Z,100558
2022-08-01T18:39:58.160Z,100552
2022-08-01T18:47:00.454Z,100566
2022-08-01T18:52:50.279Z,100574
2022-08-01T18:58:40.574Z,100573
2022-08-01T19:04:31.661Z,100594
2022-08-01T19:10:22.413Z,100585
2022-08-01T19:16:13.380Z,100594
2022-08-01T19:22:03.845Z,100600
2022-08-01T19:27:56.299Z,100613
2022-08-01T19:33:48.205Z,100607
2022-08-01T19:39:39.166Z,100618
2022-08-01T19:45:30.502Z,100628
2022-08-01T19:51:21.369Z,100630
2022-08-01T19:57:21.676Z,100632
2022-08-01T20:03:11.899Z,100646
2022-08-01T20:09:03.690Z,100648
2022-08-01T20:14:55.278Z,100647
2022-08-01T20:20:45.958Z,100647
2022-08-01T20:26:37.136Z,100656
2022-08-01T20:32:27.433Z,100654
2022-08-01T20:38:19.112Z,100661
2022-08-01T20:44:15.905Z,100658
2022-08-01T20:50:55.065Z,100662
2022-08-01T20:56:43.483Z,100664
2022-08-01T21:02:35.932Z,100670
2022-08-01T21:08:26.298Z,100685
2022-08-01T21:14:17.995Z,100686
2022-08-01T21:20:08.331Z,100677
2022-08-01T21:25:58.836Z,100685
2022-08-01T21:31:48.829Z,100687
2022-08-01T21:37:37.507Z,100679
2022-08-01T21:43:27.127Z,100681
2022-08-01T21:49:17.073Z,100682
2022-08-01T21:55:16.910Z,100683
2022-08-01T22:01:21.867Z,100689
2022-08-01T22:07:13.202Z,100686
2022-08-01T22:13:05.738Z,100690
2022-08-01T22:18:58.330Z,100701
2022-08-01T22:24:50.051Z,100703
2022-08-01T22:30:41.222Z,100703
2022-08-01T22:36:32.183Z,100712
2022-08-01T22:42:23.886Z,100706
2022-08-01T22:48:15.375Z,100711
2022-08-01T22:54:09.830Z,100712
2022-08-01T23:00:00.420Z,100715
2022-08-01T23:05:56.936Z,100712
2022-08-01T23:11:48.516Z,100712
2022-08-01T23:17:40.069Z,100711
2022-08-01T23:23:35.598Z,100715
2022-08-01T23:29:28.342Z,100707
2022-08-01T23:35:18.756Z,100710
2022-08-01T23:41:09.154Z,100713
2022-08-01T23:47:00.122Z,100719
2022-08-01T23:52:53.541Z,100708
2022-08-01T23:58:47.217Z,100712
